sensor_id;sensor_type;location;lat;lon;timestamp;temperature;humidity
22974;DHT22;11653;50.848;4.584;2023-07-02T00:02:17;17.90;99.90
22974;DHT22;11653;50.848;4.584;2023-07-02T00:04:44;18.00;99.90
22974;DHT22;11653;50.848;4.584;2023-07-02T00:07:10;17.80;99.90
22974;DHT22;11653;50.848;4.584;2023-07-02T00:09:36;17.80;99.90
22974;DHT22;11653;50.848;4.584;2023-07-02T00:12:02;17.80;99.90
22974;DHT22;11653;50.848;4.584;2023-07-02T00:14:27;17.80;99.90
22974;DHT22;11653;50.848;4.584;2023-07-02T00:16:53;17.70;99.90
22974;DHT22;11653;50.848;4.584;2023-07-02T00:19:19;17.60;99.90
22974;DHT22;11653;50.848;4.584;2023-07-02T00:21:44;17.60;99.90
22974;DHT22;11653;50.848;4.584;2023-07-02T00:24:10;17.60;99.90
22974;DHT22;11653;50.848;4.584;2023-07-02T00:26:37;17.60;99.90
22974;DHT22;11653;50.848;4.584;2023-07-02T00:29:06;17.60;99.90
22974;DHT22;11653;50.848;4.584;2023-07-02T00:31:33;17.60;99.90
22974;DHT22;11653;50.848;4.584;2023-07-02T00:33:59;17.60;99.90
22974;DHT22;11653;50.848;4.584;2023-07-02T00:36:26;17.60;99.90
22974;DHT22;11653;50.848;4.584;2023-07-02T00:38:52;17.60;99.90
22974;DHT22;11653;50.848;4.584;2023-07-02T00:41:18;17.50;99.90
22974;DHT22;11653;50.848;4.584;2023-07-02T00:43:43;17.50;99.90
22974;DHT22;11653;50.848;4.584;2023-07-02T00:46:19;17.50;99.90
22974;DHT22;11653;50.848;4.584;2023-07-02T00:48:50;17.50;99.90
22974;DHT22;11653;50.848;4.584;2023-07-02T00:51:27;17.50;99.90
22974;DHT22;11653;50.848;4.584;2023-07-02T00:53:54;17.60;99.90
22974;DHT22;11653;50.848;4.584;2023-07-02T00:56:21;17.50;99.90
22974;DHT22;11653;50.848;4.584;2023-07-02T00:58:48;17.50;99.90
22974;DHT22;11653;50.848;4.584;2023-07-02T01:01:23;17.40;99.90
22974;DHT22;11653;50.848;4.584;2023-07-02T01:04:03;17.30;99.90
22974;DHT22;11653;50.848;4.584;2023-07-02T01:06:31;17.30;99.90
22974;DHT22;11653;50.848;4.584;2023-07-02T01:08:59;17.40;99.90
22974;DHT22;11653;50.848;4.584;2023-07-02T01:11:27;17.40;99.90
22974;DHT22;11653;50.848;4.584;2023-07-02T01:13:57;17.30;99.90
22974;DHT22;11653;50.848;4.584;2023-07-02T01:16:25;17.30;99.90
22974;DHT22;11653;50.848;4.584;2023-07-02T01:18:51;17.30;99.90
22974;DHT22;11653;50.848;4.584;2023-07-02T01:21:20;17.30;99.90
22974;DHT22;11653;50.848;4.584;2023-07-02T01:23:46;17.20;99.90
22974;DHT22;11653;50.848;4.584;2023-07-02T01:26:12;17.20;99.90
22974;DHT22;11653;50.848;4.584;2023-07-02T01:28:38;17.20;99.90
22974;DHT22;11653;50.848;4.584;2023-07-02T01:31:04;17.20;99.90
22974;DHT22;11653;50.848;4.584;2023-07-02T01:33:31;17.20;99.90
22974;DHT22;11653;50.848;4.584;2023-07-02T01:35:56;17.30;99.90
22974;DHT22;11653;50.848;4.584;2023-07-02T01:38:22;17.30;99.90
22974;DHT22;11653;50.848;4.584;2023-07-02T01:40:48;17.30;99.90
22974;DHT22;11653;50.848;4.584;2023-07-02T01:43:13;17.20;99.90
22974;DHT22;11653;50.848;4.584;2023-07-02T01:45:41;17.20;99.90
22974;DHT22;11653;50.848;4.584;2023-07-02T01:48:07;17.20;99.90
22974;DHT22;11653;50.848;4.584;2023-07-02T01:50:32;17.20;99.90
22974;DHT22;11653;50.848;4.584;2023-07-02T01:52:58;17.30;99.90
22974;DHT22;11653;50.848;4.584;2023-07-02T01:55:23;17.40;99.90
22974;DHT22;11653;50.848;4.584;2023-07-02T01:57:49;17.40;99.90
22974;DHT22;11653;50.848;4.584;2023-07-02T02:00:15;17.30;99.90
22974;DHT22;11653;50.848;4.584;2023-07-02T02:02:42;17.30;99.90
22974;DHT22;11653;50.848;4.584;2023-07-02T02:05:08;17.40;99.90
22974;DHT22;11653;50.848;4.584;2023-07-02T02:07:38;17.40;99.90
22974;DHT22;11653;50.848;4.584;2023-07-02T02:10:04;17.40;99.90
22974;DHT22;11653;50.848;4.584;2023-07-02T02:12:30;17.40;99.90
22974;DHT22;11653;50.848;4.584;2023-07-02T02:14:56;17.30;99.90
22974;DHT22;11653;50.848;4.584;2023-07-02T02:17:21;17.30;99.90
22974;DHT22;11653;50.848;4.584;2023-07-02T02:19:49;17.40;99.90
22974;DHT22;11653;50.848;4.584;2023-07-02T02:22:15;17.30;99.90
22974;DHT22;11653;50.848;4.584;2023-07-02T02:24:40;17.30;99.90
22974;DHT22;11653;50.848;4.584;2023-07-02T02:27:06;17.30;99.90
22974;DHT22;11653;50.848;4.584;2023-07-02T02:29:31;17.30;99.90
22974;DHT22;11653;50.848;4.584;2023-07-02T02:31:57;17.30;99.90
22974;DHT22;11653;50.848;4.584;2023-07-02T02:34:23;17.30;99.90
22974;DHT22;11653;50.848;4.584;2023-07-02T02:36:48;17.30;99.90
22974;DHT22;11653;50.848;4.584;2023-07-02T02:39:14;17.30;99.90
22974;DHT22;11653;50.848;4.584;2023-07-02T02:41:41;17.10;99.90
22974;DHT22;11653;50.848;4.584;2023-07-02T02:44:06;17.10;99.90
22974;DHT22;11653;50.848;4.584;2023-07-02T02:46:32;17.10;99.90
22974;DHT22;11653;50.848;4.584;2023-07-02T02:48:58;17.10;99.90
22974;DHT22;11653;50.848;4.584;2023-07-02T02:51:23;17.10;99.90
22974;DHT22;11653;50.848;4.584;2023-07-02T02:53:49;17.00;99.90
22974;DHT22;11653;50.848;4.584;2023-07-02T02:56:15;17.00;99.90
22974;DHT22;11653;50.848;4.584;2023-07-02T02:58:40;17.00;99.90
22974;DHT22;11653;50.848;4.584;2023-07-02T03:01:06;17.00;99.90
22974;DHT22;11653;50.848;4.584;2023-07-02T03:03:39;17.00;99.90
22974;DHT22;11653;50.848;4.584;2023-07-02T03:06:11;17.00;99.90
22974;DHT22;11653;50.848;4.584;2023-07-02T03:08:38;17.00;99.90
22974;DHT22;11653;50.848;4.584;2023-07-02T03:11:04;17.00;99.90
22974;DHT22;11653;50.848;4.584;2023-07-02T03:13:30;16.90;99.90
22974;DHT22;11653;50.848;4.584;2023-07-02T03:15:55;17.00;99.90
22974;DHT22;11653;50.848;4.584;2023-07-02T03:18:21;16.90;99.90
22974;DHT22;11653;50.848;4.584;2023-07-02T03:20:47;16.90;99.90
22974;DHT22;11653;50.848;4.584;2023-07-02T03:23:12;17.00;99.90
22974;DHT22;11653;50.848;4.584;2023-07-02T03:25:38;16.90;99.90
22974;DHT22;11653;50.848;4.584;2023-07-02T03:28:03;16.90;99.90
22974;DHT22;11653;50.848;4.584;2023-07-02T03:30:29;16.80;99.90
22974;DHT22;11653;50.848;4.584;2023-07-02T03:32:55;16.90;99.90
22974;DHT22;11653;50.848;4.584;2023-07-02T03:35:20;16.90;99.90
22974;DHT22;11653;50.848;4.584;2023-07-02T03:37:46;16.90;99.90
22974;DHT22;11653;50.848;4.584;2023-07-02T03:40:11;16.90;99.90
22974;DHT22;11653;50.848;4.584;2023-07-02T03:42:37;16.90;99.90
22974;DHT22;11653;50.848;4.584;2023-07-02T03:45:03;16.90;99.90
22974;DHT22;11653;50.848;4.584;2023-07-02T03:47:29;16.90;99.90
22974;DHT22;11653;50.848;4.584;2023-07-02T03:49:54;16.90;99.90
22974;DHT22;11653;50.848;4.584;2023-07-02T03:52:20;16.90;99.90
22974;DHT22;11653;50.848;4.584;2023-07-02T03:54:46;16.90;99.90
22974;DHT22;11653;50.848;4.584;2023-07-02T03:57:11;16.80;99.90
22974;DHT22;11653;50.848;4.584;2023-07-02T03:59:37;16.70;99.90
22974;DHT22;11653;50.848;4.584;2023-07-02T04:02:03;16.70;99.90
22974;DHT22;11653;50.848;4.584;2023-07-02T04:04:29;16.80;99.90
22974;DHT22;11653;50.848;4.584;2023-07-02T04:06:55;16.70;99.90
22974;DHT22;11653;50.848;4.584;2023-07-02T04:09:20;16.70;99.90
22974;DHT22;11653;50.848;4.584;2023-07-02T04:11:46;16.70;99.90
22974;DHT22;11653;50.848;4.584;2023-07-02T04:14:12;16.80;99.90
22974;DHT22;11653;50.848;4.584;2023-07-02T04:16:37;16.90;99.90
22974;DHT22;11653;50.848;4.584;2023-07-02T04:19:03;16.90;99.90
22974;DHT22;11653;50.848;4.584;2023-07-02T04:21:28;16.80;99.90
22974;DHT22;11653;50.848;4.584;2023-07-02T04:23:54;16.80;99.90
22974;DHT22;11653;50.848;4.584;2023-07-02T04:26:20;16.90;99.90
22974;DHT22;11653;50.848;4.584;2023-07-02T04:28:46;16.90;99.90
22974;DHT22;11653;50.848;4.584;2023-07-02T04:31:11;16.80;99.90
22974;DHT22;11653;50.848;4.584;2023-07-02T04:33:37;16.80;99.90
22974;DHT22;11653;50.848;4.584;2023-07-02T04:36:03;16.90;99.90
22974;DHT22;11653;50.848;4.584;2023-07-02T04:38:29;16.90;99.90
22974;DHT22;11653;50.848;4.584;2023-07-02T04:40:55;16.90;99.90
22974;DHT22;11653;50.848;4.584;2023-07-02T04:43:23;17.00;99.90
22974;DHT22;11653;50.848;4.584;2023-07-02T04:45:49;17.00;99.90
22974;DHT22;11653;50.848;4.584;2023-07-02T04:48:14;17.00;99.90
22974;DHT22;11653;50.848;4.584;2023-07-02T04:50:42;17.10;99.90
22974;DHT22;11653;50.848;4.584;2023-07-02T04:53:07;17.10;99.90
22974;DHT22;11653;50.848;4.584;2023-07-02T04:55:33;17.10;99.90
22974;DHT22;11653;50.848;4.584;2023-07-02T04:57:58;17.20;99.90
22974;DHT22;11653;50.848;4.584;2023-07-02T05:00:24;17.20;99.90
22974;DHT22;11653;50.848;4.584;2023-07-02T05:02:50;17.30;99.90
22974;DHT22;11653;50.848;4.584;2023-07-02T05:05:16;17.30;99.90
22974;DHT22;11653;50.848;4.584;2023-07-02T05:07:42;17.40;99.90
22974;DHT22;11653;50.848;4.584;2023-07-02T05:10:08;17.50;99.90
22974;DHT22;11653;50.848;4.584;2023-07-02T05:12:34;17.70;99.90
22974;DHT22;11653;50.848;4.584;2023-07-02T05:15:00;17.80;99.90
22974;DHT22;11653;50.848;4.584;2023-07-02T05:17:25;18.00;99.90
22974;DHT22;11653;50.848;4.584;2023-07-02T05:19:51;18.30;99.90
22974;DHT22;11653;50.848;4.584;2023-07-02T05:22:17;18.50;99.90
22974;DHT22;11653;50.848;4.584;2023-07-02T05:24:43;18.60;99.90
22974;DHT22;11653;50.848;4.584;2023-07-02T05:27:09;18.80;99.90
22974;DHT22;11653;50.848;4.584;2023-07-02T05:29:35;18.80;99.90
22974;DHT22;11653;50.848;4.584;2023-07-02T05:32:01;18.90;99.90
22974;DHT22;11653;50.848;4.584;2023-07-02T05:34:26;18.80;99.90
22974;DHT22;11653;50.848;4.584;2023-07-02T05:36:52;18.80;99.90
22974;DHT22;11653;50.848;4.584;2023-07-02T05:39:17;18.70;99.90
22974;DHT22;11653;50.848;4.584;2023-07-02T05:41:43;18.70;99.90
22974;DHT22;11653;50.848;4.584;2023-07-02T05:44:09;18.60;99.90
22974;DHT22;11653;50.848;4.584;2023-07-02T05:46:34;18.50;99.90
22974;DHT22;11653;50.848;4.584;2023-07-02T05:49:00;18.50;99.90
22974;DHT22;11653;50.848;4.584;2023-07-02T05:51:26;18.30;99.90
22974;DHT22;11653;50.848;4.584;2023-07-02T05:53:51;18.40;99.90
22974;DHT22;11653;50.848;4.584;2023-07-02T05:56:18;18.60;99.90
22974;DHT22;11653;50.848;4.584;2023-07-02T05:58:45;18.90;99.90
22974;DHT22;11653;50.848;4.584;2023-07-02T06:01:11;19.20;99.90
22974;DHT22;11653;50.848;4.584;2023-07-02T06:03:36;19.40;99.90
22974;DHT22;11653;50.848;4.584;2023-07-02T06:06:03;19.40;99.90
22974;DHT22;11653;50.848;4.584;2023-07-02T06:08:28;19.40;99.90
22974;DHT22;11653;50.848;4.584;2023-07-02T06:10:54;19.50;99.90
22974;DHT22;11653;50.848;4.584;2023-07-02T06:13:20;19.60;99.90
22974;DHT22;11653;50.848;4.584;2023-07-02T06:15:45;19.70;99.90
22974;DHT22;11653;50.848;4.584;2023-07-02T06:18:12;19.70;99.90
22974;DHT22;11653;50.848;4.584;2023-07-02T06:20:38;19.80;99.90
22974;DHT22;11653;50.848;4.584;2023-07-02T06:23:04;19.90;99.90
22974;DHT22;11653;50.848;4.584;2023-07-02T06:25:29;20.10;99.90
22974;DHT22;11653;50.848;4.584;2023-07-02T06:27:55;20.20;99.90
22974;DHT22;11653;50.848;4.584;2023-07-02T06:30:24;20.30;99.90
22974;DHT22;11653;50.848;4.584;2023-07-02T06:32:49;20.20;99.90
22974;DHT22;11653;50.848;4.584;2023-07-02T06:35:15;20.20;99.90
22974;DHT22;11653;50.848;4.584;2023-07-02T06:37:41;20.40;99.90
22974;DHT22;11653;50.848;4.584;2023-07-02T06:40:07;20.80;99.90
22974;DHT22;11653;50.848;4.584;2023-07-02T06:42:32;21.10;99.90
22974;DHT22;11653;50.848;4.584;2023-07-02T06:44:58;21.50;99.90
22974;DHT22;11653;50.848;4.584;2023-07-02T06:47:24;21.80;99.90
22974;DHT22;11653;50.848;4.584;2023-07-02T06:49:52;22.10;99.90
22974;DHT22;11653;50.848;4.584;2023-07-02T06:52:18;22.20;99.90
22974;DHT22;11653;50.848;4.584;2023-07-02T06:54:43;21.90;99.90
22974;DHT22;11653;50.848;4.584;2023-07-02T06:57:09;21.70;99.90
22974;DHT22;11653;50.848;4.584;2023-07-02T06:59:35;21.40;99.90
22974;DHT22;11653;50.848;4.584;2023-07-02T07:02:01;21.20;99.90
22974;DHT22;11653;50.848;4.584;2023-07-02T07:04:27;20.90;99.90
22974;DHT22;11653;50.848;4.584;2023-07-02T07:06:53;20.90;99.90
22974;DHT22;11653;50.848;4.584;2023-07-02T07:09:21;20.80;99.90
22974;DHT22;11653;50.848;4.584;2023-07-02T07:11:46;21.00;99.90
22974;DHT22;11653;50.848;4.584;2023-07-02T07:14:12;21.10;99.90
22974;DHT22;11653;50.848;4.584;2023-07-02T07:16:38;21.30;99.90
22974;DHT22;11653;50.848;4.584;2023-07-02T07:19:04;21.40;99.90
22974;DHT22;11653;50.848;4.584;2023-07-02T07:21:30;21.40;99.90
22974;DHT22;11653;50.848;4.584;2023-07-02T07:23:55;21.40;99.90
22974;DHT22;11653;50.848;4.584;2023-07-02T07:26:21;21.30;99.90
22974;DHT22;11653;50.848;4.584;2023-07-02T07:28:47;21.50;99.90
22974;DHT22;11653;50.848;4.584;2023-07-02T07:31:12;21.70;99.90
22974;DHT22;11653;50.848;4.584;2023-07-02T07:33:38;22.10;99.90
22974;DHT22;11653;50.848;4.584;2023-07-02T07:36:04;22.70;99.90
22974;DHT22;11653;50.848;4.584;2023-07-02T07:38:29;23.00;99.90
22974;DHT22;11653;50.848;4.584;2023-07-02T07:40:55;22.80;99.90
22974;DHT22;11653;50.848;4.584;2023-07-02T07:43:21;22.70;99.90
22974;DHT22;11653;50.848;4.584;2023-07-02T07:45:47;22.80;99.90
22974;DHT22;11653;50.848;4.584;2023-07-02T07:48:12;22.70;99.90
22974;DHT22;11653;50.848;4.584;2023-07-02T07:50:38;22.70;99.90
22974;DHT22;11653;50.848;4.584;2023-07-02T07:53:03;22.80;99.90
22974;DHT22;11653;50.848;4.584;2023-07-02T07:55:29;22.70;99.90
22974;DHT22;11653;50.848;4.584;2023-07-02T07:57:55;22.80;99.90
22974;DHT22;11653;50.848;4.584;2023-07-02T08:00:20;22.80;99.90
22974;DHT22;11653;50.848;4.584;2023-07-02T08:02:46;22.80;99.90
22974;DHT22;11653;50.848;4.584;2023-07-02T08:05:12;22.90;99.90
22974;DHT22;11653;50.848;4.584;2023-07-02T08:07:39;23.10;99.90
22974;DHT22;11653;50.848;4.584;2023-07-02T08:10:06;23.20;99.90
22974;DHT22;11653;50.848;4.584;2023-07-02T08:12:33;23.30;99.90
22974;DHT22;11653;50.848;4.584;2023-07-02T08:14:59;23.40;99.90
22974;DHT22;11653;50.848;4.584;2023-07-02T08:17:25;23.60;99.90
22974;DHT22;11653;50.848;4.584;2023-07-02T08:19:50;23.80;99.90
22974;DHT22;11653;50.848;4.584;2023-07-02T08:22:16;23.90;99.90
22974;DHT22;11653;50.848;4.584;2023-07-02T08:24:41;23.90;99.50
22974;DHT22;11653;50.848;4.584;2023-07-02T08:27:07;24.20;98.20
22974;DHT22;11653;50.848;4.584;2023-07-02T08:29:33;24.40;98.50
22974;DHT22;11653;50.848;4.584;2023-07-02T08:31:59;24.40;98.40
22974;DHT22;11653;50.848;4.584;2023-07-02T08:34:24;24.30;97.50
22974;DHT22;11653;50.848;4.584;2023-07-02T08:36:50;24.20;97.90
22974;DHT22;11653;50.848;4.584;2023-07-02T08:39:17;24.30;99.00
22974;DHT22;11653;50.848;4.584;2023-07-02T08:41:44;24.50;97.90
22974;DHT22;11653;50.848;4.584;2023-07-02T08:44:12;24.90;96.70
22974;DHT22;11653;50.848;4.584;2023-07-02T08:46:41;25.20;96.80
22974;DHT22;11653;50.848;4.584;2023-07-02T08:49:10;25.80;95.50
22974;DHT22;11653;50.848;4.584;2023-07-02T08:51:36;26.10;94.10
22974;DHT22;11653;50.848;4.584;2023-07-02T08:54:02;25.70;93.90
22974;DHT22;11653;50.848;4.584;2023-07-02T08:56:28;25.30;94.20
22974;DHT22;11653;50.848;4.584;2023-07-02T08:58:54;25.00;95.30
22974;DHT22;11653;50.848;4.584;2023-07-02T09:01:20;24.80;96.60
22974;DHT22;11653;50.848;4.584;2023-07-02T09:03:45;24.50;96.30
22974;DHT22;11653;50.848;4.584;2023-07-02T09:06:11;24.20;96.10
22974;DHT22;11653;50.848;4.584;2023-07-02T09:08:37;23.60;97.00
22974;DHT22;11653;50.848;4.584;2023-07-02T09:11:08;23.20;99.70
22974;DHT22;11653;50.848;4.584;2023-07-02T09:13:51;23.40;99.60
22974;DHT22;11653;50.848;4.584;2023-07-02T09:16:32;23.60;98.50
22974;DHT22;11653;50.848;4.584;2023-07-02T09:19:08;23.30;98.50
22974;DHT22;11653;50.848;4.584;2023-07-02T09:21:49;23.10;99.80
22974;DHT22;11653;50.848;4.584;2023-07-02T09:24:20;22.90;99.90
22974;DHT22;11653;50.848;4.584;2023-07-02T09:26:47;22.60;99.90
22974;DHT22;11653;50.848;4.584;2023-07-02T09:29:20;22.30;99.90
22974;DHT22;11653;50.848;4.584;2023-07-02T09:31:47;22.20;99.90
22974;DHT22;11653;50.848;4.584;2023-07-02T09:34:14;22.10;99.90
22974;DHT22;11653;50.848;4.584;2023-07-02T09:36:40;22.10;99.90
22974;DHT22;11653;50.848;4.584;2023-07-02T09:39:14;22.20;99.90
22974;DHT22;11653;50.848;4.584;2023-07-02T09:41:41;22.30;99.90
22974;DHT22;11653;50.848;4.584;2023-07-02T09:44:08;22.40;99.90
22974;DHT22;11653;50.848;4.584;2023-07-02T09:46:37;22.30;99.90
22974;DHT22;11653;50.848;4.584;2023-07-02T09:49:07;22.20;99.90
22974;DHT22;11653;50.848;4.584;2023-07-02T09:51:33;22.10;99.90
22974;DHT22;11653;50.848;4.584;2023-07-02T09:53:59;22.00;99.90
22974;DHT22;11653;50.848;4.584;2023-07-02T09:56:25;21.90;99.90
22974;DHT22;11653;50.848;4.584;2023-07-02T09:58:51;21.90;99.90
22974;DHT22;11653;50.848;4.584;2023-07-02T10:01:17;22.30;99.90
22974;DHT22;11653;50.848;4.584;2023-07-02T10:03:42;22.90;99.90
22974;DHT22;11653;50.848;4.584;2023-07-02T10:06:08;23.30;99.90
22974;DHT22;11653;50.848;4.584;2023-07-02T10:08:35;23.50;98.20
22974;DHT22;11653;50.848;4.584;2023-07-02T10:11:11;23.40;98.40
22974;DHT22;11653;50.848;4.584;2023-07-02T10:13:38;23.30;99.30
22974;DHT22;11653;50.848;4.584;2023-07-02T10:16:05;23.00;97.60
22974;DHT22;11653;50.848;4.584;2023-07-02T10:18:31;22.80;98.10
22974;DHT22;11653;50.848;4.584;2023-07-02T10:20:57;22.60;98.00
22974;DHT22;11653;50.848;4.584;2023-07-02T10:23:33;22.10;98.20
22974;DHT22;11653;50.848;4.584;2023-07-02T10:26:10;21.80;99.90
22974;DHT22;11653;50.848;4.584;2023-07-02T10:28:36;21.50;99.90
22974;DHT22;11653;50.848;4.584;2023-07-02T10:31:02;21.60;99.90
22974;DHT22;11653;50.848;4.584;2023-07-02T10:33:27;22.20;99.90
22974;DHT22;11653;50.848;4.584;2023-07-02T10:35:53;23.40;99.70
22974;DHT22;11653;50.848;4.584;2023-07-02T10:38:23;24.30;96.50
22974;DHT22;11653;50.848;4.584;2023-07-02T10:40:56;24.70;95.10
22974;DHT22;11653;50.848;4.584;2023-07-02T10:43:30;25.30;93.30
22974;DHT22;11653;50.848;4.584;2023-07-02T10:45:56;26.30;93.80
22974;DHT22;11653;50.848;4.584;2023-07-02T10:48:23;27.20;88.90
22974;DHT22;11653;50.848;4.584;2023-07-02T10:50:48;27.10;85.90
22974;DHT22;11653;50.848;4.584;2023-07-02T10:53:15;26.70;84.00
22974;DHT22;11653;50.848;4.584;2023-07-02T10:55:42;25.60;85.20
22974;DHT22;11653;50.848;4.584;2023-07-02T10:58:09;24.90;87.70
22974;DHT22;11653;50.848;4.584;2023-07-02T11:00:49;24.30;90.70
22974;DHT22;11653;50.848;4.584;2023-07-02T11:03:18;23.50;90.70
22974;DHT22;11653;50.848;4.584;2023-07-02T11:05:48;23.00;92.40
22974;DHT22;11653;50.848;4.584;2023-07-02T11:08:14;23.00;94.50
22974;DHT22;11653;50.848;4.584;2023-07-02T11:10:41;23.00;92.60
22974;DHT22;11653;50.848;4.584;2023-07-02T11:13:15;22.90;92.70
22974;DHT22;11653;50.848;4.584;2023-07-02T11:15:41;23.00;92.70
22974;DHT22;11653;50.848;4.584;2023-07-02T11:18:11;23.90;94.00
22974;DHT22;11653;50.848;4.584;2023-07-02T11:20:37;25.10;92.10
22974;DHT22;11653;50.848;4.584;2023-07-02T11:23:03;25.40;89.10
22974;DHT22;11653;50.848;4.584;2023-07-02T11:25:29;25.10;90.00
22974;DHT22;11653;50.848;4.584;2023-07-02T11:28:04;24.70;90.80
22974;DHT22;11653;50.848;4.584;2023-07-02T11:30:30;25.10;92.20
22974;DHT22;11653;50.848;4.584;2023-07-02T11:32:56;26.00;90.20
22974;DHT22;11653;50.848;4.584;2023-07-02T11:35:22;26.50;85.80
22974;DHT22;11653;50.848;4.584;2023-07-02T11:37:58;27.00;85.30
22974;DHT22;11653;50.848;4.584;2023-07-02T11:40:24;28.10;82.70
22974;DHT22;11653;50.848;4.584;2023-07-02T11:42:50;28.80;74.50
22974;DHT22;11653;50.848;4.584;2023-07-02T11:45:15;28.60;71.80
22974;DHT22;11653;50.848;4.584;2023-07-02T11:47:41;28.00;72.80
22974;DHT22;11653;50.848;4.584;2023-07-02T11:50:07;27.10;73.70
22974;DHT22;11653;50.848;4.584;2023-07-02T11:52:33;26.40;75.70
22974;DHT22;11653;50.848;4.584;2023-07-02T11:54:59;25.40;79.40
22974;DHT22;11653;50.848;4.584;2023-07-02T11:57:24;24.70;80.80
22974;DHT22;11653;50.848;4.584;2023-07-02T11:59:50;24.70;84.80
22974;DHT22;11653;50.848;4.584;2023-07-02T12:02:18;24.80;84.30
22974;DHT22;11653;50.848;4.584;2023-07-02T12:04:43;25.00;84.20
22974;DHT22;11653;50.848;4.584;2023-07-02T12:07:09;25.70;82.20
22974;DHT22;11653;50.848;4.584;2023-07-02T12:09:36;26.00;78.40
22974;DHT22;11653;50.848;4.584;2023-07-02T12:12:02;26.00;76.30
22974;DHT22;11653;50.848;4.584;2023-07-02T12:14:28;25.90;77.30
22974;DHT22;11653;50.848;4.584;2023-07-02T12:16:53;26.10;80.00
22974;DHT22;11653;50.848;4.584;2023-07-02T12:19:19;26.60;79.10
22974;DHT22;11653;50.848;4.584;2023-07-02T12:21:44;26.70;77.10
22974;DHT22;11653;50.848;4.584;2023-07-02T12:24:10;26.20;76.40
22974;DHT22;11653;50.848;4.584;2023-07-02T12:26:36;25.90;80.30
22974;DHT22;11653;50.848;4.584;2023-07-02T12:29:02;25.70;77.40
22974;DHT22;11653;50.848;4.584;2023-07-02T12:31:29;25.50;77.40
22974;DHT22;11653;50.848;4.584;2023-07-02T12:33:55;25.20;79.40
22974;DHT22;11653;50.848;4.584;2023-07-02T12:36:21;25.10;78.90
22974;DHT22;11653;50.848;4.584;2023-07-02T12:38:46;25.00;79.70
22974;DHT22;11653;50.848;4.584;2023-07-02T12:41:12;24.90;80.10
22974;DHT22;11653;50.848;4.584;2023-07-02T12:43:37;25.10;80.20
22974;DHT22;11653;50.848;4.584;2023-07-02T12:46:03;25.20;80.40
22974;DHT22;11653;50.848;4.584;2023-07-02T12:48:29;25.30;79.70
22974;DHT22;11653;50.848;4.584;2023-07-02T12:50:59;25.30;81.80
22974;DHT22;11653;50.848;4.584;2023-07-02T12:53:26;25.30;81.00
22974;DHT22;11653;50.848;4.584;2023-07-02T12:55:53;25.30;78.90
22974;DHT22;11653;50.848;4.584;2023-07-02T12:58:19;25.30;80.90
22974;DHT22;11653;50.848;4.584;2023-07-02T13:00:46;25.50;80.20
22974;DHT22;11653;50.848;4.584;2023-07-02T13:03:12;25.50;77.40
22974;DHT22;11653;50.848;4.584;2023-07-02T13:05:39;25.50;78.30
22974;DHT22;11653;50.848;4.584;2023-07-02T13:08:05;25.30;80.60
22974;DHT22;11653;50.848;4.584;2023-07-02T13:10:32;25.20;80.10
22974;DHT22;11653;50.848;4.584;2023-07-02T13:12:59;25.00;81.20
22974;DHT22;11653;50.848;4.584;2023-07-02T13:15:24;24.90;81.70
22974;DHT22;11653;50.848;4.584;2023-07-02T13:17:50;24.80;83.70
22974;DHT22;11653;50.848;4.584;2023-07-02T13:20:16;25.00;85.40
22974;DHT22;11653;50.848;4.584;2023-07-02T13:22:42;25.10;81.50
22974;DHT22;11653;50.848;4.584;2023-07-02T13:25:08;25.10;80.00
22974;DHT22;11653;50.848;4.584;2023-07-02T13:27:34;24.90;78.20
22974;DHT22;11653;50.848;4.584;2023-07-02T13:29:59;24.80;79.00
22974;DHT22;11653;50.848;4.584;2023-07-02T13:32:25;24.80;79.70
22974;DHT22;11653;50.848;4.584;2023-07-02T13:34:51;24.60;78.90
22974;DHT22;11653;50.848;4.584;2023-07-02T13:37:17;24.60;78.40
22974;DHT22;11653;50.848;4.584;2023-07-02T13:39:44;24.70;81.40
22974;DHT22;11653;50.848;4.584;2023-07-02T13:42:10;24.80;80.40
22974;DHT22;11653;50.848;4.584;2023-07-02T13:44:36;24.60;79.90
22974;DHT22;11653;50.848;4.584;2023-07-02T13:47:01;24.60;83.60
22974;DHT22;11653;50.848;4.584;2023-07-02T13:49:27;24.90;82.70
22974;DHT22;11653;50.848;4.584;2023-07-02T13:51:53;25.00;81.40
22974;DHT22;11653;50.848;4.584;2023-07-02T13:54:19;25.00;80.10
22974;DHT22;11653;50.848;4.584;2023-07-02T13:56:46;25.20;79.80
22974;DHT22;11653;50.848;4.584;2023-07-02T13:59:11;25.20;79.30
22974;DHT22;11653;50.848;4.584;2023-07-02T14:01:37;25.30;79.50
22974;DHT22;11653;50.848;4.584;2023-07-02T14:04:03;25.30;80.30
22974;DHT22;11653;50.848;4.584;2023-07-02T14:06:29;25.30;79.30
22974;DHT22;11653;50.848;4.584;2023-07-02T14:08:55;25.30;80.40
22974;DHT22;11653;50.848;4.584;2023-07-02T14:11:22;25.30;80.50
22974;DHT22;11653;50.848;4.584;2023-07-02T14:13:48;25.20;82.30
22974;DHT22;11653;50.848;4.584;2023-07-02T14:16:14;25.10;79.30
22974;DHT22;11653;50.848;4.584;2023-07-02T14:18:39;25.10;81.30
22974;DHT22;11653;50.848;4.584;2023-07-02T14:21:05;24.80;79.10
22974;DHT22;11653;50.848;4.584;2023-07-02T14:23:32;24.60;81.50
22974;DHT22;11653;50.848;4.584;2023-07-02T14:25:57;24.50;82.70
22974;DHT22;11653;50.848;4.584;2023-07-02T14:28:23;24.30;82.90
22974;DHT22;11653;50.848;4.584;2023-07-02T14:30:56;24.40;84.40
22974;DHT22;11653;50.848;4.584;2023-07-02T14:33:23;24.70;85.30
22974;DHT22;11653;50.848;4.584;2023-07-02T14:35:49;24.80;82.40
22974;DHT22;11653;50.848;4.584;2023-07-02T14:38:15;24.80;85.10
22974;DHT22;11653;50.848;4.584;2023-07-02T14:40:40;24.90;84.60
22974;DHT22;11653;50.848;4.584;2023-07-02T14:43:06;24.80;82.60
22974;DHT22;11653;50.848;4.584;2023-07-02T14:45:32;24.70;82.60
22974;DHT22;11653;50.848;4.584;2023-07-02T14:47:58;24.70;85.00
22974;DHT22;11653;50.848;4.584;2023-07-02T14:50:26;24.80;85.60
22974;DHT22;11653;50.848;4.584;2023-07-02T14:52:52;24.90;82.20
22974;DHT22;11653;50.848;4.584;2023-07-02T14:55:18;25.10;83.20
22974;DHT22;11653;50.848;4.584;2023-07-02T14:57:44;25.20;81.50
22974;DHT22;11653;50.848;4.584;2023-07-02T15:00:10;25.20;81.60
22974;DHT22;11653;50.848;4.584;2023-07-02T15:02:36;25.20;82.00
22974;DHT22;11653;50.848;4.584;2023-07-02T15:05:01;25.20;80.60
22974;DHT22;11653;50.848;4.584;2023-07-02T15:07:28;25.10;80.70
22974;DHT22;11653;50.848;4.584;2023-07-02T15:09:54;25.00;80.30
22974;DHT22;11653;50.848;4.584;2023-07-02T15:12:19;25.00;82.40
22974;DHT22;11653;50.848;4.584;2023-07-02T15:14:45;25.00;81.80
22974;DHT22;11653;50.848;4.584;2023-07-02T15:17:11;24.70;80.60
22974;DHT22;11653;50.848;4.584;2023-07-02T15:19:37;24.50;83.40
22974;DHT22;11653;50.848;4.584;2023-07-02T15:22:02;24.50;83.20
22974;DHT22;11653;50.848;4.584;2023-07-02T15:24:28;24.80;85.20
22974;DHT22;11653;50.848;4.584;2023-07-02T15:26:54;25.00;81.70